Date,TemperatureHighF,TemperatureAvgF,TemperatureLowF,DewpointHighF,DewpointAvgF,DewpointLowF,HumidityHigh,HumidityAvg,HumidityLow,PressureMaxIn,PressureMinIn,WindSpeedMaxMPH,WindSpeedAvgMPH,GustSpeedMaxMPH,PrecipitationSumIn
2013-7-1,80.6,74.7,69.7,75.0,71.3,69.0,97,89,75,29.96,29.83,5,1,11,0.03
2013-7-2,82.2,75.1,71.9,74.0,72.0,71.0,97,90,75,30.15,29.96,7,2,14,0.04
2013-7-3,84.2,74.7,70.6,77.0,72.9,70.0,99,94,73,30.22,30.14,7,1,10,0.26
2013-7-4,87.4,77.7,71.4,77.0,72.8,70.0,99,86,67,30.24,30.14,9,2,14,0.01
2013-7-5,88.0,78.3,69.1,77.0,72.3,69.0,99,83,63,30.20,30.10,11,2,16,0.00
2013-7-6,91.1,78.8,69.1,77.0,72.5,69.0,99,82,58,30.17,30.04,6,1,9,0.00
2013-7-7,89.4,76.1,67.6,77.0,71.1,67.0,99,86,63,30.09,29.97,9,2,15,0.12
2013-7-8,84.5,74.1,67.2,74.0,69.7,67.0,99,87,60,30.08,30.02,6,2,14,0.01
2013-7-9,81.8,74.4,67.8,74.0,70.9,67.0,98,89,76,30.09,29.98,5,1,8,0.00
2013-7-10,86.4,76.9,70.8,78.0,73.1,70.0,99,88,67,30.00,29.84,10,2,15,0.02
2013-7-11,83.4,75.0,70.9,73.0,69.9,66.0,96,85,65,29.91,29.82,6,1,9,0.00
2013-7-12,70.3,67.8,64.8,69.0,66.3,64.0,98,95,82,30.02,29.89,1,0,6,0.49
2013-7-13,81.7,73.8,68.2,74.0,70.8,68.0,98,90,75,30.27,30.01,4,0,7,0.10
2013-7-14,88.5,78.2,69.6,77.0,73.1,69.0,99,86,60,30.32,30.25,5,1,8,0.00
2013-7-15,91.9,78.7,67.0,79.0,72.6,67.0,99,83,57,30.29,30.17,5,0,10,0.00
2013-7-16,91.0,81.2,72.1,76.0,72.7,70.0,97,77,51,30.23,30.15,2,0,5,0.00
2013-7-17,92.9,80.5,69.6,78.0,72.1,69.0,98,78,46,30.20,30.08,2,0,6,0.00
2013-7-18,94.6,82.6,70.7,81.0,75.6,70.0,98,81,59,30.10,29.98,4,0,8,0.00
2013-7-19,95.2,82.4,73.2,82.0,75.2,68.0,99,80,57,29.99,29.84,8,2,13,0.00
2013-7-20,91.8,79.8,69.9,79.0,72.2,69.0,98,78,60,29.87,29.77,9,2,17,0.20
2013-7-21,86.4,75.6,67.0,76.0,71.4,67.0,100,88,65,29.92,29.86,3,0,5,0.00
2013-7-22,86.4,76.3,68.9,76.0,72.5,68.0,99,89,68,29.92,29.74,10,0,17,0.33
2013-7-23,84.3,74.9,68.4,76.0,70.6,67.0,99,87,63,29.75,29.63,11,1,15,0.04
2013-7-24,81.3,73.1,66.3,69.0,65.2,57.0,97,77,59,29.92,29.66,3,0,8,0.00
2013-7-25,77.4,64.8,56.5,64.0,56.1,-99.9,98,76,59,30.03,29.91,4,0,5,0.00
2013-7-26,82.4,68.5,57.6,65.0,60.2,57.0,99,78,48,30.08,30.01,6,1,10,0.00
2013-7-27,82.8,68.2,57.6,73.0,64.8,57.0,99,90,67,30.04,29.91,8,1,13,0.21
2013-7-28,81.2,71.9,65.0,73.0,68.9,63.0,99,90,63,29.99,29.88,6,1,16,0.39
2013-7-29,78.7,67.4,56.8,63.0,59.5,55.0,99,79,49,30.14,29.97,5,1,11,0.01
2013-7-30,79.9,68.1,55.3,65.0,59.5,54.0,97,76,53,30.22,30.13,7,0,10,0.00
2013-7-31,78.7,69.0,58.7,69.0,64.0,58.0,99,85,65,30.14,30.00,5,1,8,0.00